createdAt,value
2023-01-19T00:00:18.915Z,98800.22
2023-01-19T00:02:45.225Z,98797.94
2023-01-19T00:05:11.437Z,98801.13
2023-01-19T00:07:37.650Z,98817.25
2023-01-19T00:10:04.034Z,98817.63
2023-01-19T00:12:30.246Z,98818.59
2023-01-19T00:14:56.470Z,98831.75
2023-01-19T00:17:22.690Z,98824.66
2023-01-19T00:19:48.897Z,98820.75
2023-01-19T00:22:15.103Z,98815.06
2023-01-19T00:24:41.312Z,98821.91
2023-01-19T00:27:07.511Z,98825.22
2023-01-19T00:29:33.718Z,98811.22
2023-01-19T00:32:00.258Z,98791.75
2023-01-19T00:34:26.525Z,98811.44
2023-01-19T00:36:52.743Z,98801.44
2023-01-19T00:39:18.961Z,98805.16
2023-01-19T00:41:45.182Z,98802.00
2023-01-19T00:44:11.573Z,98806.53
2023-01-19T00:46:38.131Z,98805.56
2023-01-19T00:49:04.458Z,98814.78
2023-01-19T00:51:30.664Z,98811.88
2023-01-19T00:53:56.879Z,98819.13
2023-01-19T00:56:23.083Z,98827.00
2023-01-19T00:58:49.305Z,98821.31
2023-01-19T01:01:15.619Z,98820.09
2023-01-19T01:03:41.885Z,98825.38
2023-01-19T01:06:08.090Z,98818.69
2023-01-19T01:08:34.466Z,98826.09
2023-01-19T01:11:00.725Z,98813.09
2023-01-19T01:13:27.872Z,98821.97
2023-01-19T01:15:54.548Z,98816.63
2023-01-19T01:18:20.798Z,98821.47
2023-01-19T01:20:47.017Z,98815.94
2023-01-19T01:23:13.277Z,98808.41
2023-01-19T01:25:39.579Z,98805.44
2023-01-19T01:28:06.044Z,98798.53
2023-01-19T01:30:32.255Z,98797.72
2023-01-19T01:32:58.772Z,98794.94
2023-01-19T01:35:25.180Z,98785.31
2023-01-19T01:37:51.379Z,98776.84
2023-01-19T01:40:17.831Z,98771.50
2023-01-19T01:42:44.051Z,98772.09
2023-01-19T01:45:24.346Z,98766.38
2023-01-19T01:47:50.556Z,98757.91
2023-01-19T01:50:24.523Z,98769.94
2023-01-19T01:53:06.339Z,98759.09
2023-01-19T01:55:34.956Z,98761.84
2023-01-19T01:58:01.519Z,98758.84
2023-01-19T02:00:27.736Z,98753.53
2023-01-19T02:02:53.976Z,98750.38
2023-01-19T02:05:20.146Z,98759.91
2023-01-19T02:07:47.725Z,98770.09
2023-01-19T02:10:13.946Z,98749.19
2023-01-19T02:12:40.195Z,98754.16
2023-01-19T02:15:06.592Z,98748.28
2023-01-19T02:17:32.825Z,98760.63
2023-01-19T02:19:59.038Z,98748.03
2023-01-19T02:22:26.811Z,98758.06
2023-01-19T02:24:53.016Z,98751.59
2023-01-19T02:27:19.341Z,98755.72
2023-01-19T02:29:45.553Z,98767.63
2023-01-19T02:32:11.775Z,98753.09
2023-01-19T02:34:37.995Z,98746.56
2023-01-19T02:37:06.974Z,98743.97
2023-01-19T02:39:34.598Z,98733.53
2023-01-19T02:42:01.660Z,98746.75
2023-01-19T02:44:27.910Z,98744.19
2023-01-19T02:46:54.324Z,98741.63
2023-01-19T02:49:20.543Z,98743.75
2023-01-19T02:51:46.754Z,98748.88
2023-01-19T02:54:19.015Z,98744.88
2023-01-19T02:56:49.777Z,98735.97
2023-01-19T02:59:18.581Z,98725.38
2023-01-19T03:02:03.619Z,98725.25
2023-01-19T03:04:45.038Z,98726.72
2023-01-19T03:07:12.972Z,98725.25
2023-01-19T03:09:59.200Z,98747.03
2023-01-19T03:12:27.187Z,98750.31
2023-01-19T03:14:54.583Z,98735.59
2023-01-19T03:17:20.796Z,98735.97
2023-01-19T03:19:47.891Z,98741.72
2023-01-19T03:22:15.227Z,98753.88
2023-01-19T03:24:44.397Z,98752.88
2023-01-19T03:27:11.795Z,98751.31
2023-01-19T03:29:38.190Z,98765.44
2023-01-19T03:32:06.469Z,98748.28
2023-01-19T03:34:32.924Z,98746.75
2023-01-19T03:36:59.765Z,98757.00
2023-01-19T03:39:26.667Z,98741.06
2023-01-19T03:41:53.962Z,98758.94
2023-01-19T03:44:20.824Z,98759.31
2023-01-19T03:46:47.064Z,98755.78
2023-01-19T03:49:13.279Z,98758.78
2023-01-19T03:51:39.561Z,98759.22
2023-01-19T03:54:06.071Z,98772.38
2023-01-19T03:56:32.318Z,98780.22
2023-01-19T03:58:58.562Z,98766.47
2023-01-19T04:01:24.887Z,98786.72
2023-01-19T04:03:51.328Z,98783.72
2023-01-19T04:06:17.810Z,98771.97
2023-01-19T04:08:44.010Z,98772.31
2023-01-19T04:11:10.211Z,98789.13
2023-01-19T04:13:36.434Z,98802.38
2023-01-19T04:16:03.050Z,98818.28
2023-01-19T04:18:29.451Z,98813.41
2023-01-19T04:20:55.642Z,98836.59
2023-01-19T04:23:21.847Z,98839.16
2023-01-19T04:25:48.051Z,98833.22
2023-01-19T04:28:14.265Z,98836.94
2023-01-19T04:30:40.470Z,98839.50
2023-01-19T04:33:06.694Z,98844.63
2023-01-19T04:35:33.240Z,98841.72
2023-01-19T04:37:59.453Z,98851.53
2023-01-19T04:40:25.678Z,98859.75
2023-01-19T04:42:51.876Z,98846.63
2023-01-19T04:45:18.070Z,98850.91
2023-01-19T04:47:44.271Z,98840.72
2023-01-19T04:50:10.725Z,98858.19
2023-01-19T04:52:36.974Z,98848.75
2023-01-19T04:55:03.673Z,98853.25
2023-01-19T04:57:29.910Z,98850.50
2023-01-19T04:59:56.607Z,98857.53
2023-01-19T05:02:23.127Z,98853.84
2023-01-19T05:04:49.336Z,98845.56
2023-01-19T05:07:15.571Z,98854.41
2023-01-19T05:09:41.969Z,98850.78
2023-01-19T05:12:08.198Z,98843.47
2023-01-19T05:14:34.399Z,98824.13
2023-01-19T05:17:00.614Z,98835.59
2023-01-19T05:19:26.811Z,98821.00
2023-01-19T05:21:53.019Z,98819.84
2023-01-19T05:24:19.232Z,98825.13
2023-01-19T05:26:45.456Z,98826.91
2023-01-19T05:29:11.656Z,98830.47
2023-01-19T05:31:37.965Z,98836.16
2023-01-19T05:34:04.293Z,98830.03
2023-01-19T05:36:31.944Z,98837.38
2023-01-19T05:38:58.231Z,98844.66
2023-01-19T05:41:24.419Z,98839.94
2023-01-19T05:43:50.624Z,98854.91
2023-01-19T05:46:16.837Z,98832.69
2023-01-19T05:48:43.072Z,98840.13
2023-01-19T05:51:09.281Z,98839.31
2023-01-19T05:53:35.494Z,98815.66
2023-01-19T05:56:05.465Z,98805.38
2023-01-19T05:58:32.022Z,98806.59
2023-01-19T06:01:01.451Z,98812.28
2023-01-19T06:03:27.748Z,98797.28
2023-01-19T06:05:53.969Z,98796.50
2023-01-19T06:08:20.196Z,98813.56
2023-01-19T06:10:46.407Z,98815.91
2023-01-19T06:13:12.619Z,98815.13
2023-01-19T06:15:38.814Z,98837.56
2023-01-19T06:18:05.047Z,98831.88
2023-01-19T06:20:31.257Z,98837.78
2023-01-19T06:22:57.698Z,98848.63
2023-01-19T06:25:23.929Z,98846.28
2023-01-19T06:27:50.147Z,98846.28
2023-01-19T06:30:16.464Z,98834.44
2023-01-19T06:32:42.670Z,98834.44
2023-01-19T06:35:08.956Z,98835.44
2023-01-19T06:37:35.262Z,98843.88
2023-01-19T06:40:01.508Z,98839.91
2023-01-19T06:42:27.714Z,98843.69
2023-01-19T06:44:53.909Z,98837.78
2023-01-19T06:47:20.129Z,98845.47
2023-01-19T06:49:46.337Z,98850.03
2023-01-19T06:52:12.554Z,98862.66
2023-01-19T06:54:38.821Z,98862.44
2023-01-19T06:57:05.030Z,98856.09
2023-01-19T06:59:31.534Z,98856.53
2023-01-19T07:01:57.866Z,98857.69
2023-01-19T07:04:24.344Z,98852.91
2023-01-19T07:06:50.566Z,98844.88
2023-01-19T07:09:16.988Z,98857.31
2023-01-19T07:11:43.261Z,98860.63
2023-01-19T07:14:09.480Z,98870.09
2023-01-19T07:16:35.706Z,98851.19
2023-01-19T07:19:01.943Z,98851.63
2023-01-19T07:21:29.323Z,98869.22
2023-01-19T07:23:55.697Z,98886.97
2023-01-19T07:26:22.154Z,98896.00
2023-01-19T07:28:48.475Z,98903.50
2023-01-19T07:31:14.828Z,98901.56
2023-01-19T07:33:41.121Z,98930.72
2023-01-19T07:36:07.556Z,98938.41
2023-01-19T07:38:33.770Z,98964.47
2023-01-19T07:41:06.713Z,98960.69
2023-01-19T07:43:33.098Z,98971.94
2023-01-19T07:45:59.681Z,98971.16
2023-01-19T07:48:26.241Z,98984.91
2023-01-19T07:50:52.442Z,98981.72
2023-01-19T07:53:18.677Z,98982.50
2023-01-19T07:55:44.886Z,98981.09
2023-01-19T07:58:11.133Z,98979.09
2023-01-19T08:00:37.591Z,98971.97
2023-01-19T08:03:04.441Z,98958.34
2023-01-19T08:05:31.184Z,98960.72
2023-01-19T08:07:57.464Z,98966.41
2023-01-19T08:10:24.281Z,98952.78
2023-01-19T08:12:56.417Z,98964.78
2023-01-19T08:15:23.027Z,98939.38
2023-01-19T08:17:56.188Z,98943.09
2023-01-19T08:20:22.395Z,98946.81
2023-01-19T08:22:48.856Z,98956.66
2023-01-19T08:25:15.078Z,98945.41
2023-01-19T08:27:41.278Z,98934.84
2023-01-19T08:30:07.815Z,98924.38
2023-01-19T08:32:34.035Z,98917.22
2023-01-19T08:35:00.247Z,98912.88
2023-01-19T08:37:26.453Z,98908.22
2023-01-19T08:39:52.653Z,98899.88
2023-01-19T08:42:18.845Z,98895.31
2023-01-19T08:44:57.219Z,98890.19
2023-01-19T08:47:24.111Z,98886.16
2023-01-19T08:49:50.337Z,98898.94
2023-01-19T08:52:16.552Z,98888.31
2023-01-19T08:54:42.766Z,98890.25
2023-01-19T08:57:08.984Z,98880.53
2023-01-19T08:59:35.198Z,98887.00
2023-01-19T09:02:01.499Z,98888.69
2023-01-19T09:04:27.766Z,98867.94
2023-01-19T09:06:53.970Z,98887.72
2023-01-19T09:09:20.276Z,98875.22
2023-01-19T09:11:46.472Z,98873.78
2023-01-19T09:14:12.689Z,98850.22
2023-01-19T09:16:38.908Z,98855.50
2023-01-19T09:19:05.113Z,98841.75
2023-01-19T09:21:31.323Z,98856.41
2023-01-19T09:23:57.530Z,98839.66
2023-01-19T09:26:23.761Z,98831.25
2023-01-19T09:28:49.982Z,98813.16
2023-01-19T09:31:16.245Z,98812.94
2023-01-19T09:33:42.528Z,98799.16
2023-01-19T09:36:08.752Z,98803.66
2023-01-19T09:38:35.030Z,98815.59
2023-01-19T09:41:01.339Z,98816.16
2023-01-19T09:43:33.727Z,98830.13
2023-01-19T09:46:04.192Z,98812.91
2023-01-19T09:48:32.724Z,98811.47
2023-01-19T09:51:00.368Z,98795.50
2023-01-19T09:56:26.394Z,98831.22
2023-01-19T09:58:52.623Z,98833.56
2023-01-19T10:01:28.156Z,98815.22
2023-01-19T10:04:00.786Z,98789.72
2023-01-19T10:06:27.003Z,98761.69
2023-01-19T10:09:00.729Z,98766.84
2023-01-19T10:11:53.996Z,98753.28
2023-01-19T10:14:31.428Z,98773.50
2023-01-19T10:17:00.866Z,98749.09
2023-01-19T10:19:27.681Z,98724.66
2023-01-19T10:21:54.626Z,98742.16
2023-01-19T10:24:26.017Z,98709.44
2023-01-19T10:26:55.824Z,98687.38
2023-01-19T10:29:24.195Z,98648.09
2023-01-19T10:31:51.711Z,98659.50
2023-01-19T10:34:20.432Z,98677.28
2023-01-19T10:36:49.498Z,98687.78
2023-01-19T10:39:16.197Z,98673.56
2023-01-19T10:41:52.289Z,98665.91
2023-01-19T10:44:25.278Z,98640.31
2023-01-19T10:46:56.054Z,98635.22
2023-01-19T10:49:25.397Z,98653.22
2023-01-19T10:51:51.634Z,98654.34
2023-01-19T10:54:17.856Z,98634.75
2023-01-19T10:56:44.135Z,98621.19
2023-01-19T10:59:28.491Z,98630.50
2023-01-19T11:02:10.273Z,98641.34
2023-01-19T11:04:36.801Z,98685.13
2023-01-19T11:07:12.446Z,98644.66
2023-01-19T11:09:38.677Z,98618.19
2023-01-19T11:12:05.043Z,98628.38
2023-01-19T11:14:31.278Z,98622.22
2023-01-19T11:16:57.795Z,98623.31
2023-01-19T11:19:25.041Z,98669.81
2023-01-19T11:21:51.671Z,98692.66
2023-01-19T11:24:17.944Z,98692.28
2023-01-19T11:26:44.811Z,98722.34
2023-01-19T11:29:15.753Z,98720.72
2023-01-19T11:31:42.654Z,98722.56
2023-01-19T11:34:25.969Z,98736.22
2023-01-19T11:37:02.287Z,98723.94
2023-01-19T11:39:32.909Z,98720.44
2023-01-19T11:42:13.232Z,98739.03
2023-01-19T11:44:57.946Z,98770.47
2023-01-19T11:47:28.751Z,98746.84
2023-01-19T11:50:18.370Z,98742.38
2023-01-19T11:52:45.572Z,98746.28
2023-01-19T11:55:17.951Z,98759.91
2023-01-19T11:58:05.213Z,98746.63
2023-01-19T12:00:38.797Z,98775.91
2023-01-19T12:05:57.788Z,98771.31
2023-01-19T12:08:25.247Z,98759.53
2023-01-19T12:10:54.276Z,98740.41
2023-01-19T12:16:04.688Z,98735.78
2023-01-19T12:18:43.252Z,98734.22
2023-01-19T12:21:09.523Z,98736.81
2023-01-19T12:23:39.544Z,98776.06
2023-01-19T12:29:10.620Z,98773.03
2023-01-19T12:31:40.645Z,98741.72
2023-01-19T12:40:03.939Z,98743.28
2023-01-19T12:43:27.243Z,98738.03
2023-01-19T12:55:12.404Z,98909.88
2023-01-19T12:57:39.638Z,98916.84
2023-01-19T13:00:24.255Z,98928.50
2023-01-19T13:02:54.119Z,98931.28
2023-01-19T13:05:24.246Z,98942.59
2023-01-19T13:08:02.729Z,98956.63
2023-01-19T13:10:47.886Z,98973.09
2023-01-19T13:13:17.637Z,99007.56
2023-01-19T13:15:43.855Z,99018.53
2023-01-19T13:18:10.564Z,99013.72
2023-01-19T13:20:43.852Z,99013.28
2023-01-19T13:23:17.610Z,99027.41
2023-01-19T13:25:45.069Z,99039.28
2023-01-19T13:28:12.577Z,99045.53
2023-01-19T13:30:39.722Z,99070.16
2023-01-19T13:33:15.724Z,99092.34
2023-01-19T13:35:47.871Z,99099.28
2023-01-19T13:38:14.073Z,99101.84
2023-01-19T13:40:40.290Z,99125.91
2023-01-19T13:43:07.207Z,99150.00
2023-01-19T13:45:34.092Z,99146.28
2023-01-19T13:48:00.901Z,99164.53
2023-01-19T13:50:30.838Z,99178.00
2023-01-19T13:52:57.110Z,99186.88
2023-01-19T13:55:23.350Z,99163.13
2023-01-19T13:57:49.787Z,99165.13
2023-01-19T14:00:22.310Z,99172.28
2023-01-19T14:02:58.616Z,99178.81
2023-01-19T14:05:26.097Z,99172.00
2023-01-19T14:08:04.392Z,99157.28
2023-01-19T14:10:30.666Z,99168.94
2023-01-19T14:13:00.521Z,99161.00
2023-01-19T14:15:27.316Z,99128.47
2023-01-19T14:18:11.864Z,99134.56
2023-01-19T14:20:38.097Z,99128.47
2023-01-19T14:23:04.548Z,99138.69
2023-01-19T14:25:31.599Z,99167.03
2023-01-19T14:28:16.367Z,99175.84
2023-01-19T14:30:52.914Z,99179.41
2023-01-19T14:33:37.961Z,99211.53
2023-01-19T14:36:17.791Z,99229.28
2023-01-19T14:38:44.863Z,99241.50
2023-01-19T14:41:11.249Z,99247.22
2023-01-19T14:43:37.596Z,99244.84
2023-01-19T14:46:03.815Z,99252.00
2023-01-19T14:48:30.031Z,99267.91
2023-01-19T14:51:03.804Z,99286.94
2023-01-19T14:53:32.409Z,99294.88
2023-01-19T14:55:59.346Z,99290.13
2023-01-19T14:58:25.979Z,99297.28
2023-01-19T15:00:52.346Z,99317.47
2023-01-19T15:03:18.686Z,99302.22
2023-01-19T15:05:45.288Z,99304.44
2023-01-19T15:08:12.339Z,99314.63
2023-01-19T15:10:38.559Z,99318.03
2023-01-19T15:13:04.768Z,99330.28
2023-01-19T15:15:31.586Z,99332.91
2023-01-19T15:18:01.346Z,99336.91
2023-01-19T15:20:27.722Z,99350.09
2023-01-19T15:22:53.963Z,99353.28
2023-01-19T15:25:20.870Z,99355.19
2023-01-19T15:27:47.343Z,99367.25
2023-01-19T15:30:20.248Z,99368.31
2023-01-19T15:32:46.475Z,99396.38
2023-01-19T15:35:16.246Z,99401.28
2023-01-19T15:37:42.474Z,99403.72
2023-01-19T15:40:08.919Z,99426.06
2023-01-19T15:42:35.130Z,99423.72
2023-01-19T15:45:01.341Z,99420.78
2023-01-19T15:47:27.563Z,99444.59
2023-01-19T15:49:53.775Z,99462.81
2023-01-19T15:52:19.979Z,99481.03
2023-01-19T15:54:46.186Z,99488.75
2023-01-19T15:57:12.398Z,99486.56
2023-01-19T15:59:38.648Z,99482.97
2023-01-19T16:02:04.995Z,99488.69
2023-01-19T16:04:31.278Z,99482.81
2023-01-19T16:06:57.487Z,99501.19
2023-01-19T16:09:23.677Z,99510.13
2023-01-19T16:11:49.890Z,99522.94
2023-01-19T16:14:17.483Z,99521.22
2023-01-19T16:16:43.961Z,99520.81
2023-01-19T16:19:10.194Z,99530.50
2023-01-19T16:21:39.164Z,99530.88
2023-01-19T16:24:09.664Z,99522.59
2023-01-19T16:26:35.881Z,99533.44
2023-01-19T16:29:03.782Z,99533.09
2023-01-19T16:31:30.019Z,99527.75
2023-01-19T16:33:56.267Z,99545.16
2023-01-19T16:36:26.441Z,99547.16
2023-01-19T16:38:52.768Z,99549.34
2023-01-19T16:41:19.002Z,99558.06
2023-01-19T16:43:49.612Z,99561.00
2023-01-19T16:46:34.553Z,99569.69
2023-01-19T16:49:06.594Z,99566.34
2023-01-19T16:51:32.829Z,99575.28
2023-01-19T16:53:59.042Z,99573.13
2023-01-19T16:56:25.252Z,99588.94
2023-01-19T16:58:54.687Z,99591.69
2023-01-19T17:01:21.001Z,99589.13
2023-01-19T17:03:47.289Z,99579.84
2023-01-19T17:06:14.305Z,99594.50
2023-01-19T17:08:40.526Z,99591.34
2023-01-19T17:11:16.989Z,99591.56
2023-01-19T17:13:43.213Z,99599.50
2023-01-19T17:16:09.416Z,99603.84
2023-01-19T17:18:35.658Z,99606.78
2023-01-19T17:21:02.344Z,99596.50
2023-01-19T17:23:28.969Z,99590.19
2023-01-19T17:25:55.188Z,99587.63
2023-01-19T17:28:21.639Z,99592.38
2023-01-19T17:30:47.925Z,99589.81
2023-01-19T17:33:14.181Z,99585.69
2023-01-19T17:35:40.376Z,99588.47
2023-01-19T17:38:06.592Z,99595.63
2023-01-19T17:40:32.796Z,99586.91
2023-01-19T17:42:59.020Z,99592.44
2023-01-19T17:45:25.230Z,99585.31
2023-01-19T17:47:51.450Z,99588.28
2023-01-19T17:50:17.668Z,99576.03
2023-01-19T17:52:43.877Z,99570.09
2023-01-19T17:55:10.307Z,99569.53
2023-01-19T17:57:36.529Z,99574.50
2023-01-19T18:00:06.095Z,99564.41
2023-01-19T18:02:32.386Z,99554.72
2023-01-19T18:04:58.589Z,99552.78
2023-01-19T18:07:24.794Z,99549.63
2023-01-19T18:09:51.044Z,99534.97
2023-01-19T18:12:17.336Z,99525.66
2023-01-19T18:14:43.563Z,99518.56
2023-01-19T18:17:09.807Z,99518.97
2023-01-19T18:19:36.014Z,99516.19
2023-01-19T18:22:02.208Z,99504.91
2023-01-19T18:24:28.425Z,99503.34
2023-01-19T18:26:55.773Z,99489.66
2023-01-19T18:29:22.084Z,99481.78
2023-01-19T18:31:48.291Z,99468.91
2023-01-19T18:34:14.502Z,99457.84
2023-01-19T18:36:40.706Z,99443.22
2023-01-19T18:39:06.915Z,99439.28
2023-01-19T18:41:33.120Z,99425.44
2023-01-19T18:43:59.695Z,99419.13
2023-01-19T18:46:25.933Z,99412.63
2023-01-19T18:48:52.163Z,99409.84
2023-01-19T18:51:18.367Z,99402.91
2023-01-19T18:53:44.675Z,99392.63
2023-01-19T18:56:11.395Z,99377.22
2023-01-19T18:58:37.847Z,99360.38
2023-01-19T19:01:04.162Z,99342.75
2023-01-19T19:03:30.379Z,99337.56
2023-01-19T19:05:56.619Z,99326.75
2023-01-19T19:08:22.866Z,99317.09
2023-01-19T19:10:49.087Z,99316.00
2023-01-19T19:13:15.701Z,99310.88
2023-01-19T19:15:41.953Z,99298.66
2023-01-19T19:18:08.217Z,99287.97
2023-01-19T19:20:37.228Z,99286.19
2023-01-19T19:23:03.430Z,99280.09
2023-01-19T19:25:29.644Z,99267.09
2023-01-19T19:27:55.838Z,99266.13
2023-01-19T19:30:22.167Z,99257.06
2023-01-19T19:32:52.075Z,99245.63
2023-01-19T19:35:18.286Z,99243.66
2023-01-19T19:37:44.486Z,99237.50
2023-01-19T19:40:11.167Z,99229.03
2023-01-19T19:42:37.467Z,99222.94
2023-01-19T19:45:03.897Z,99216.81
2023-01-19T19:47:30.094Z,99205.19
2023-01-19T19:49:56.317Z,99196.47
2023-01-19T19:52:22.531Z,99182.72
2023-01-19T19:54:48.803Z,99172.50
2023-01-19T19:57:15.054Z,99156.31
2023-01-19T19:59:41.255Z,99153.41
2023-01-19T20:02:08.554Z,99145.50
2023-01-19T20:04:34.792Z,99136.88
2023-01-19T20:07:01.025Z,99127.09
2023-01-19T20:09:27.243Z,99122.38
2023-01-19T20:11:53.473Z,99115.47
2023-01-19T20:14:19.694Z,99109.16
2023-01-19T20:16:45.909Z,99092.97
2023-01-19T20:19:12.122Z,99078.94
2023-01-19T20:21:39.011Z,99071.50
2023-01-19T20:24:06.081Z,99068.00
2023-01-19T20:26:33.031Z,99061.28
2023-01-19T20:28:59.703Z,99049.06
2023-01-19T20:31:29.838Z,99043.38
2023-01-19T20:33:56.418Z,99026.75
2023-01-19T20:36:22.720Z,99020.06
2023-01-19T20:38:48.946Z,99014.94
2023-01-19T20:41:15.144Z,99011.44
2023-01-19T20:43:41.356Z,98999.78
2023-01-19T20:46:07.576Z,98985.19
2023-01-19T20:48:33.797Z,98978.69
2023-01-19T20:51:10.036Z,98973.19
2023-01-19T20:53:36.380Z,98972.06
2023-01-19T20:56:05.948Z,98961.47
2023-01-19T20:58:32.323Z,98957.50
2023-01-19T21:00:58.593Z,98951.53
2023-01-19T21:03:24.864Z,98942.50
2023-01-19T21:05:51.096Z,98943.28
2023-01-19T21:08:17.318Z,98940.72
2023-01-19T21:10:43.545Z,98926.34
2023-01-19T21:13:09.759Z,98920.66
2023-01-19T21:15:36.001Z,98916.53
2023-01-19T21:18:02.287Z,98923.16
2023-01-19T21:20:28.717Z,98916.47
2023-01-19T21:22:55.186Z,98920.88
2023-01-19T21:25:21.662Z,98915.78
2023-01-19T21:27:47.865Z,98910.72
2023-01-19T21:30:14.118Z,98900.56
2023-01-19T21:32:40.322Z,98888.75
2023-01-19T21:35:06.679Z,98886.97
2023-01-19T21:37:32.909Z,98882.09
2023-01-19T21:39:59.145Z,98878.75
2023-01-19T21:42:25.345Z,98875.41
2023-01-19T21:44:51.569Z,98871.69
2023-01-19T21:47:17.786Z,98859.38
2023-01-19T21:49:44.009Z,98849.84
2023-01-19T21:52:10.222Z,98842.81
2023-01-19T21:54:36.433Z,98849.31
2023-01-19T21:57:02.648Z,98846.72
2023-01-19T21:59:28.857Z,98842.50
2023-01-19T22:01:55.144Z,98849.84
2023-01-19T22:04:21.443Z,98855.25
2023-01-19T22:06:47.669Z,98856.25
2023-01-19T22:09:13.867Z,98857.44
2023-01-19T22:11:40.104Z,98855.81
2023-01-19T22:14:06.335Z,98875.03
2023-01-19T22:16:32.635Z,98861.78
2023-01-19T22:18:59.447Z,98865.09
2023-01-19T22:21:32.343Z,98867.78
2023-01-19T22:23:59.020Z,98870.22
2023-01-19T22:26:25.401Z,98872.72
2023-01-19T22:28:55.062Z,98868.16
2023-01-19T22:31:21.400Z,98869.75
2023-01-19T22:33:47.668Z,98866.00
2023-01-19T22:36:13.892Z,98870.91
2023-01-19T22:38:40.281Z,98876.06
2023-01-19T22:41:11.114Z,98882.97
2023-01-19T22:43:37.319Z,98887.91
2023-01-19T22:46:04.251Z,98891.09
2023-01-19T22:48:30.912Z,98890.94
2023-01-19T22:50:57.113Z,98899.25
2023-01-19T22:53:23.317Z,98889.00
2023-01-19T22:55:49.540Z,98893.97
2023-01-19T22:58:15.752Z,98888.22
2023-01-19T23:00:41.953Z,98883.66
2023-01-19T23:03:08.152Z,98897.53
2023-01-19T23:05:37.497Z,98897.94
2023-01-19T23:08:03.782Z,98905.06
2023-01-19T23:10:30.112Z,98904.28
2023-01-19T23:12:56.437Z,98908.63
2023-01-19T23:15:22.659Z,98907.63
2023-01-19T23:17:48.876Z,98913.16
2023-01-19T23:20:15.089Z,98905.44
2023-01-19T23:22:41.297Z,98904.84
2023-01-19T23:25:07.610Z,98926.75
2023-01-19T23:27:33.817Z,98926.22
2023-01-19T23:30:00.046Z,98922.22
2023-01-19T23:32:26.277Z,98915.31
2023-01-19T23:34:52.542Z,98923.06
2023-01-19T23:37:18.763Z,98934.09
2023-01-19T23:39:44.976Z,98936.25
2023-01-19T23:42:11.202Z,98939.22
2023-01-19T23:44:37.417Z,98940.63
2023-01-19T23:47:03.636Z,98942.56
2023-01-19T23:49:29.859Z,98939.44
2023-01-19T23:51:56.079Z,98948.91
2023-01-19T23:54:38.014Z,98951.25
2023-01-19T23:57:04.245Z,98947.16
2023-01-19T23:59:30.456Z,98946.78
